Archival Weather

Chicago O'Hare International

Chicago, Illinois (KORD)

Report from: Thursday, April 13, 2023 2:51 AM CDT
Current time: Sunday, February 25, 2024 4:32 PM CST

Current weather – Weather history – Daily summaries
Weather forecast

Temperature16.7°C (62.1°F)
Dew point5.0°C (41.0°F)
Winds 7 kts (3.6 m/s, 8.1 mph) South-Southwest (210°)
Visibility10 mi. (16.1 km)
Clouds Sky clear
Altimeter29.88 in.Hg (1012 mB)
Relative humidity46 %
Density altitude388 ft. (118 m)
Sea-level pressure101.2 kPa (1012 mB, 29.87 in.Hg)
Remarks Automated weather observing station with precipitation discriminator
Flight conditions Visual Meteorological Conditions
Raw dataKORD 130751Z 21007KT 10SM CLR 17/05 A2988 RMK AO2 SLP115 T01670050
An error has occurred. This application may no longer respond until reloaded. Reload 🗙